createdAt,value
2018-04-16T00:02:25.412Z,16.20
2018-04-16T00:04:51.847Z,16.10
2018-04-16T00:07:18.285Z,16.20
2018-04-16T00:09:44.717Z,16.30
2018-04-16T00:12:11.270Z,16.30
2018-04-16T00:14:37.651Z,16.30
2018-04-16T00:17:04.095Z,16.30
2018-04-16T00:19:30.521Z,16.30
2018-04-16T00:21:56.932Z,16.30
2018-04-16T00:24:23.304Z,16.30
2018-04-16T00:26:49.820Z,16.30
2018-04-16T00:29:16.281Z,16.20
2018-04-16T00:31:48.779Z,16.30
2018-04-16T00:34:21.996Z,16.30
2018-04-16T00:36:54.570Z,16.30
2018-04-16T00:39:27.016Z,16.30
2018-04-16T00:42:00.070Z,16.30
2018-04-16T00:44:32.564Z,16.30
2018-04-16T00:47:04.989Z,16.30
2018-04-16T00:49:37.501Z,16.20
2018-04-16T00:52:09.904Z,16.20
2018-04-16T00:54:42.484Z,16.20
2018-04-16T00:57:14.813Z,16.20
2018-04-16T00:59:47.309Z,16.20
2018-04-16T01:02:19.616Z,16.20
2018-04-16T01:04:51.988Z,16.20
2018-04-16T01:07:24.526Z,16.00
2018-04-16T01:09:57.722Z,15.80
2018-04-16T01:12:30.904Z,15.90
2018-04-16T01:15:04.056Z,15.90
2018-04-16T01:17:36.632Z,15.90
2018-04-16T01:20:09.002Z,16.00
2018-04-16T01:22:41.380Z,16.00
2018-04-16T01:25:13.839Z,16.10
2018-04-16T01:27:46.961Z,16.00
2018-04-16T01:30:19.433Z,16.00
2018-04-16T01:32:52.614Z,15.90
2018-04-16T01:35:25.116Z,15.80
2018-04-16T01:37:58.505Z,15.90
2018-04-16T01:40:31.871Z,15.90
2018-04-16T01:43:04.418Z,15.90
2018-04-16T01:45:36.973Z,16.00
2018-04-16T01:48:09.519Z,15.90
2018-04-16T01:50:41.974Z,15.80
2018-04-16T01:53:14.420Z,15.90
2018-04-16T01:55:47.553Z,15.90
2018-04-16T01:58:19.924Z,15.80
2018-04-16T02:00:52.459Z,15.80
2018-04-16T02:03:25.683Z,15.90
2018-04-16T02:05:58.403Z,15.90
2018-04-16T02:08:30.845Z,16.00
2018-04-16T02:11:04.057Z,16.00
2018-04-16T02:13:36.421Z,16.00
2018-04-16T02:16:09.668Z,16.10
2018-04-16T02:18:41.997Z,16.10
2018-04-16T02:21:14.426Z,16.10
2018-04-16T02:23:46.724Z,16.00
2018-04-16T02:26:19.132Z,15.90
2018-04-16T02:28:51.594Z,16.00
2018-04-16T02:31:24.143Z,15.90
2018-04-16T02:33:56.521Z,15.70
2018-04-16T02:36:29.044Z,15.60
2018-04-16T02:39:01.379Z,15.60
2018-04-16T02:41:34.117Z,15.50
2018-04-16T02:47:11.717Z,15.50
2018-04-16T02:49:44.219Z,15.60
2018-04-16T02:52:16.893Z,15.50
2018-04-16T02:54:50.220Z,15.60
2018-04-16T02:57:22.857Z,15.50
2018-04-16T02:59:55.226Z,15.60
2018-04-16T03:02:28.372Z,15.60
2018-04-16T03:05:00.960Z,15.60
2018-04-16T03:07:33.315Z,15.60
2018-04-16T03:10:05.680Z,15.60
2018-04-16T03:12:38.010Z,15.70
2018-04-16T03:15:11.104Z,15.50
2018-04-16T03:17:43.506Z,15.60
2018-04-16T03:20:15.994Z,15.50
2018-04-16T03:22:48.546Z,15.40
2018-04-16T03:25:20.990Z,15.30
2018-04-16T03:27:54.097Z,15.20
2018-04-16T03:30:27.298Z,15.10
2018-04-16T03:32:59.713Z,15.10
2018-04-16T03:35:32.118Z,15.00
2018-04-16T03:38:05.387Z,14.90
2018-04-16T03:40:37.718Z,14.90
2018-04-16T03:46:13.483Z,15.00
2018-04-16T03:48:53.602Z,15.10
2018-04-16T03:51:20.784Z,14.90
2018-04-16T03:53:48.041Z,14.90
2018-04-16T03:56:14.387Z,14.80
2018-04-16T03:58:40.799Z,14.90
2018-04-16T04:01:07.202Z,15.00
2018-04-16T04:03:33.629Z,15.10
2018-04-16T04:06:00.800Z,15.00
2018-04-16T04:08:27.358Z,15.00
2018-04-16T04:10:53.752Z,15.00
2018-04-16T04:13:20.903Z,14.60
2018-04-16T04:15:47.287Z,14.60
2018-04-16T04:18:13.668Z,14.60
2018-04-16T04:20:40.056Z,14.50
2018-04-16T04:23:24.712Z,14.40
2018-04-16T04:26:09.357Z,14.50
2018-04-16T04:28:54.178Z,14.50
2018-04-16T04:31:20.588Z,14.60
2018-04-16T04:33:47.784Z,14.50
2018-04-16T04:36:14.185Z,14.40
2018-04-16T04:38:41.296Z,14.40
2018-04-16T04:41:08.297Z,14.30
2018-04-16T04:43:34.722Z,14.50
2018-04-16T04:46:01.225Z,14.60
2018-04-16T04:48:28.341Z,14.80
2018-04-16T04:50:54.693Z,14.70
2018-04-16T04:53:21.074Z,14.90
2018-04-16T04:55:47.452Z,14.70
2018-04-16T04:58:14.634Z,14.70
2018-04-16T05:00:41.060Z,14.70
2018-04-16T05:03:07.459Z,14.80
2018-04-16T05:05:34.897Z,14.70
2018-04-16T05:08:01.311Z,14.70
2018-04-16T05:10:27.811Z,14.70
2018-04-16T05:12:54.244Z,14.80
2018-04-16T05:15:20.676Z,14.80
2018-04-16T05:17:47.172Z,14.80
2018-04-16T05:20:13.597Z,14.70
2018-04-16T05:22:40.040Z,14.60
2018-04-16T05:25:06.544Z,14.60
2018-04-16T05:27:32.967Z,14.70
2018-04-16T05:29:59.424Z,14.70
2018-04-16T05:32:25.927Z,14.70
2018-04-16T05:34:52.359Z,14.70
2018-04-16T05:37:18.746Z,14.70
2018-04-16T05:39:45.164Z,14.70
2018-04-16T05:42:11.666Z,14.70
2018-04-16T05:44:38.124Z,14.80
2018-04-16T05:47:04.529Z,14.80
2018-04-16T05:49:30.904Z,14.80
2018-04-16T05:51:57.336Z,14.90
2018-04-16T05:54:24.516Z,15.10
2018-04-16T05:56:51.749Z,15.10
2018-04-16T05:59:18.954Z,15.10
2018-04-16T06:01:45.464Z,15.10
2018-04-16T06:04:11.905Z,15.20
2018-04-16T06:06:39.041Z,15.20
2018-04-16T06:09:06.359Z,15.20
2018-04-16T06:11:32.818Z,15.20
2018-04-16T06:13:59.236Z,15.00
2018-04-16T06:16:25.644Z,14.80
2018-04-16T06:18:52.857Z,14.90
2018-04-16T06:21:19.242Z,14.80
2018-04-16T06:23:45.629Z,14.90
2018-04-16T06:26:12.139Z,14.90
2018-04-16T06:28:38.543Z,14.80
2018-04-16T06:31:04.983Z,14.80
2018-04-16T06:33:31.405Z,14.90
2018-04-16T06:35:57.920Z,15.00
2018-04-16T06:38:24.444Z,15.00
2018-04-16T06:40:50.870Z,15.00
2018-04-16T06:43:17.253Z,15.10
2018-04-16T06:45:43.748Z,15.10
2018-04-16T06:48:10.159Z,15.20
2018-04-16T06:50:36.607Z,15.30
2018-04-16T06:53:03.038Z,15.30
2018-04-16T06:55:30.242Z,15.30
2018-04-16T06:57:56.712Z,15.30
2018-04-16T07:00:23.885Z,15.20
2018-04-16T07:02:50.348Z,15.20
2018-04-16T07:05:16.886Z,14.90
2018-04-16T07:07:43.348Z,15.00
2018-04-16T07:10:09.735Z,15.00
2018-04-16T07:12:36.220Z,15.00
2018-04-16T07:15:03.381Z,15.20
2018-04-16T07:17:30.567Z,15.20
2018-04-16T07:19:57.039Z,15.30
2018-04-16T07:22:23.494Z,15.20
2018-04-16T07:24:50.623Z,15.30
2018-04-16T07:27:17.876Z,15.50
2018-04-16T07:29:44.271Z,15.40
2018-04-16T07:32:10.707Z,15.60
2018-04-16T07:34:37.148Z,15.70
2018-04-16T07:37:03.533Z,15.90
2018-04-16T07:39:30.690Z,16.00
2018-04-16T07:41:57.132Z,16.10
2018-04-16T18:57:10.115Z,18.00
2018-04-16T18:59:36.525Z,18.10
2018-04-16T19:02:03.110Z,18.10
2018-04-16T19:04:29.556Z,18.00
2018-04-16T19:06:56.061Z,18.00
2018-04-16T19:09:22.499Z,18.00
2018-04-16T19:11:49.893Z,17.90
2018-04-16T19:14:17.030Z,18.00
2018-04-16T19:16:43.502Z,18.00
2018-04-16T19:19:10.007Z,18.00
2018-04-16T19:21:42.438Z,18.00
2018-04-16T19:24:08.898Z,18.00
2018-04-16T19:26:35.438Z,17.90
2018-04-16T19:29:01.900Z,17.90
2018-04-16T19:31:28.517Z,17.80
2018-04-16T19:34:01.873Z,17.80
2018-04-16T19:36:28.552Z,17.80
2018-04-16T19:38:55.003Z,17.80
2018-04-16T19:41:21.497Z,17.70
2018-04-16T19:43:48.764Z,17.70
2018-04-16T19:46:15.240Z,17.70
2018-04-16T19:51:46.883Z,17.60
2018-04-16T19:54:13.368Z,17.60
2018-04-16T19:56:45.981Z,17.60
2018-04-16T19:59:13.216Z,17.50
2018-04-16T20:01:39.791Z,17.50
2018-04-16T20:04:06.384Z,17.50
2018-04-16T20:06:33.565Z,17.50
2018-04-16T20:09:10.089Z,17.50
2018-04-16T20:11:36.623Z,17.50
2018-04-16T20:14:03.101Z,17.40
2018-04-16T20:16:30.710Z,17.40
2018-04-16T20:18:57.184Z,17.40
2018-04-16T20:21:23.790Z,17.40
2018-04-16T20:23:50.218Z,17.20
2018-04-16T20:26:16.697Z,17.20
2018-04-16T20:28:43.164Z,17.20
2018-04-16T20:31:09.736Z,17.20
2018-04-16T20:33:36.191Z,17.20
2018-04-16T20:36:02.696Z,17.20
2018-04-16T20:38:32.517Z,17.10
2018-04-16T20:40:59.024Z,17.10
2018-04-16T20:43:25.494Z,17.10
2018-04-16T20:45:52.747Z,17.10
2018-04-16T20:48:19.219Z,17.20
2018-04-16T20:50:45.714Z,17.10
2018-04-16T20:53:12.219Z,17.00
2018-04-16T20:55:38.685Z,16.90
2018-04-16T20:58:05.157Z,16.90
2018-04-16T21:00:31.632Z,16.90
2018-04-16T21:02:58.828Z,16.60
2018-04-16T21:05:25.274Z,16.60
2018-04-16T21:07:51.728Z,16.50
2018-04-16T21:10:18.205Z,16.60
2018-04-16T21:12:44.647Z,16.50
2018-04-16T21:15:11.114Z,16.60
2018-04-16T21:17:37.555Z,16.70
2018-04-16T21:20:03.994Z,16.70
2018-04-16T21:22:30.473Z,16.70
2018-04-16T21:24:56.898Z,16.70
2018-04-16T21:27:23.317Z,16.60
2018-04-16T21:29:49.796Z,16.60
2018-04-16T21:32:16.218Z,16.60
2018-04-16T21:34:42.707Z,16.60
2018-04-16T21:37:09.898Z,16.60
2018-04-16T21:39:36.400Z,16.60
2018-04-16T21:42:02.806Z,16.70
2018-04-16T21:44:29.206Z,16.60
2018-04-16T21:46:55.689Z,16.60
2018-04-16T21:49:22.155Z,16.50
2018-04-16T21:51:48.592Z,16.50
2018-04-16T21:54:14.983Z,16.50
2018-04-16T21:56:42.149Z,16.30
2018-04-16T21:59:08.601Z,16.30
2018-04-16T22:01:35.041Z,16.30
2018-04-16T22:04:01.575Z,16.30
2018-04-16T22:06:28.048Z,16.30
2018-04-16T22:08:55.213Z,16.40
2018-04-16T22:11:21.673Z,16.30
2018-04-16T22:13:48.174Z,16.40
2018-04-16T22:16:14.618Z,16.40
2018-04-16T22:18:41.053Z,16.40
2018-04-16T22:21:07.485Z,16.30
2018-04-16T22:23:34.588Z,16.20
2018-04-16T22:26:00.977Z,16.20
2018-04-16T22:28:27.454Z,16.20
2018-04-16T22:30:53.923Z,16.20
2018-04-16T22:33:20.325Z,16.20
2018-04-16T22:35:47.437Z,16.20
2018-04-16T22:38:13.856Z,16.10
2018-04-16T22:40:40.308Z,16.20
2018-04-16T22:43:06.723Z,16.10
2018-04-16T22:45:33.194Z,16.10
2018-04-16T22:47:59.696Z,16.10
2018-04-16T22:50:26.137Z,16.20
2018-04-16T22:52:52.557Z,16.20
2018-04-16T22:55:19.059Z,16.10
2018-04-16T22:57:45.460Z,16.00
2018-04-16T23:00:11.952Z,15.90
2018-04-16T23:02:38.363Z,15.80
2018-04-16T23:05:04.820Z,15.60
2018-04-16T23:07:31.172Z,15.60
2018-04-16T23:09:57.591Z,15.50
2018-04-16T23:12:24.015Z,15.40
2018-04-16T23:14:52.117Z,15.30
2018-04-16T23:17:18.495Z,15.20
2018-04-16T23:19:44.879Z,15.30
2018-04-16T23:22:13.927Z,15.10
2018-04-16T23:24:40.318Z,15.10
2018-04-16T23:27:06.702Z,15.10
2018-04-16T23:29:33.102Z,14.90
2018-04-16T23:31:59.492Z,14.70
2018-04-16T23:34:25.913Z,14.80
2018-04-16T23:36:52.285Z,14.80
2018-04-16T23:39:18.686Z,14.70
2018-04-16T23:41:45.099Z,14.60
2018-04-16T23:44:11.525Z,14.60
2018-04-16T23:46:37.917Z,14.50
2018-04-16T23:49:04.389Z,14.50
2018-04-16T23:51:30.772Z,14.50
2018-04-16T23:53:57.149Z,14.40
2018-04-16T23:56:23.560Z,14.20
2018-04-16T23:58:49.935Z,14.10
